Time;durP1;ratioP1;P1;durP2;ratioP2;P2;SDS_P1;SDS_P2;PMS_P1;PMS_P2;Temp;Humidity;BMP_temperature;BMP_pressure;BME280_temperature;BME280_humidity;BME280_pressure;Samples;Min_cycle;Max_cycle;Signal;HPM_P1;HPM_P2
2022/01/11 00:00:04;;;;;;;32.42;26.65;;;9.50;81.00;;;;;;5015670;28;20479;-66
2022/01/11 00:02:31;;;;;;;32.72;26.48;;;9.50;81.00;;;;;;5015067;28;20026;-67
2022/01/11 00:04:56;;;;;;;34.15;26.92;;;9.50;80.90;;;;;;5015768;28;20018;-66
2022/01/11 00:07:23;;;;;;;31.73;26.42;;;9.50;80.90;;;;;;5015589;28;20026;-67
2022/01/11 00:09:51;;;;;;;33.60;27.58;;;9.50;80.80;;;;;;5015651;28;20057;-66
2022/01/11 00:12:16;;;;;;;29.35;26.10;;;9.50;80.80;;;;;;5015528;28;20029;-65
2022/01/11 00:14:42;;;;;;;33.10;25.63;;;9.50;80.90;;;;;;5015472;28;20018;-65
2022/01/11 00:17:08;;;;;;;33.75;26.85;;;9.40;80.90;;;;;;5014892;28;20041;-66
2022/01/11 00:19:34;;;;;;;31.67;25.52;;;9.50;81.10;;;;;;5015649;28;20030;-66
2022/01/11 00:22:03;;;;;;;35.03;26.45;;;9.50;80.80;;;;;;5015316;28;20034;-66
2022/01/11 00:24:29;;;;;;;34.20;26.20;;;9.50;81.00;;;;;;5015195;28;20025;-66
2022/01/11 00:27:08;;;;;;;33.35;26.75;;;9.50;81.00;;;;;;5013829;28;20567;-67
2022/01/11 00:29:35;;;;;;;33.45;27.25;;;9.40;81.10;;;;;;5015220;28;20474;-66
2022/01/11 00:32:07;;;;;;;32.70;25.92;;;9.50;81.20;;;;;;5014814;28;20482;-67
2022/01/11 00:35:10;;;;;;;34.25;26.10;;;9.40;81.20;;;;;;5013628;28;20073;-67
2022/01/11 00:37:26;;;;;;;29.88;25.20;;;9.40;81.20;;;;;;5011781;28;20044;-66
2022/01/11 00:39:52;;;;;;;34.05;26.48;;;9.40;81.30;;;;;;5015018;28;20030;-63
2022/01/11 00:42:19;;;;;;;32.90;26.83;;;9.30;81.60;;;;;;5014873;28;20057;-64
2022/01/11 00:44:45;;;;;;;33.83;25.92;;;9.30;81.50;;;;;;5014207;28;20033;-66
2022/01/11 00:47:11;;;;;;;30.98;25.20;;;9.40;81.50;;;;;;5014541;28;20042;-66
2022/01/11 00:49:39;;;;;;;32.30;26.45;;;9.40;81.30;;;;;;5013254;28;20475;-66
2022/01/11 00:52:08;;;;;;;29.70;25.17;;;9.40;81.40;;;;;;5014738;28;20054;-67
2022/01/11 00:54:34;;;;;;;34.33;27.00;;;9.40;81.30;;;;;;5014506;28;20022;-66
2022/01/11 00:56:59;;;;;;;31.50;26.00;;;9.50;81.40;;;;;;5014463;28;20026;-66
2022/01/11 00:59:25;;;;;;;31.90;25.30;;;9.40;81.30;;;;;;5014188;28;20104;-67
2022/01/11 01:01:51;;;;;;;30.83;24.38;;;9.40;81.30;;;;;;5014174;28;20029;-67
2022/01/11 01:04:16;;;;;;;29.75;25.77;;;9.40;81.20;;;;;;5013971;28;20062;-66
2022/01/11 01:06:44;;;;;;;29.17;24.23;;;9.40;81.10;;;;;;5013116;28;20044;-67
2022/01/11 01:09:10;;;;;;;32.10;24.88;;;9.40;81.30;;;;;;5014115;28;20018;-66
2022/01/11 01:11:35;;;;;;;27.52;23.13;;;9.30;81.20;;;;;;5014446;28;20037;-67
2022/01/11 01:14:01;;;;;;;26.40;23.55;;;9.30;81.10;;;;;;5013922;28;20018;-66
2022/01/11 01:16:26;;;;;;;27.88;23.77;;;9.20;81.20;;;;;;5014241;28;20030;-66
2022/01/11 01:18:52;;;;;;;26.15;22.48;;;9.20;81.10;;;;;;5014218;28;20030;-67
2022/01/11 01:21:18;;;;;;;27.55;22.92;;;9.20;81.00;;;;;;5014383;28;20521;-66
2022/01/11 01:23:44;;;;;;;29.17;22.65;;;9.20;80.90;;;;;;5013918;28;20022;-66
2022/01/11 01:26:11;;;;;;;24.45;21.85;;;9.30;80.90;;;;;;5014375;28;20034;-66
2022/01/11 01:28:37;;;;;;;24.55;21.33;;;9.20;80.80;;;;;;5013689;28;20495;-66
2022/01/11 01:31:02;;;;;;;26.15;21.77;;;9.20;81.00;;;;;;5014127;28;20100;-66
2022/01/11 01:33:31;;;;;;;28.02;21.50;;;9.20;80.70;;;;;;5013875;28;20490;-66
2022/01/11 01:36:01;;;;;;;23.55;20.05;;;9.20;80.60;;;;;;5012785;28;20568;-66
2022/01/11 01:38:29;;;;;;;23.30;20.08;;;9.20;80.80;;;;;;5013762;28;20029;-66
2022/01/11 01:41:01;;;;;;;22.17;19.70;;;9.20;80.70;;;;;;5013982;28;20076;-66
2022/01/11 01:43:28;;;;;;;22.27;19.45;;;9.20;80.80;;;;;;5012599;28;20042;-67
2022/01/11 01:45:55;;;;;;;24.50;20.35;;;9.20;80.60;;;;;;5013577;28;20025;-66
2022/01/11 01:48:21;;;;;;;26.13;20.60;;;9.10;80.40;;;;;;5013525;28;20034;-66
2022/01/11 01:50:48;;;;;;;23.27;19.85;;;9.10;80.60;;;;;;5013731;28;20084;-64
2022/01/11 01:53:14;;;;;;;23.80;20.05;;;9.10;80.50;;;;;;5013680;28;20026;-65
2022/01/11 01:55:42;;;;;;;28.58;19.90;;;9.20;80.40;;;;;;5013541;28;20029;-66
2022/01/11 01:58:09;;;;;;;21.75;19.23;;;9.10;80.60;;;;;;5013431;28;20025;-66
2022/01/11 02:00:41;;;;;;;25.50;19.50;;;9.10;80.50;;;;;;5013514;28;20124;-64
2022/01/11 02:03:11;;;;;;;26.00;19.98;;;9.10;80.40;;;;;;5013572;28;20029;-66
2022/01/11 02:05:38;;;;;;;24.90;19.58;;;9.10;80.50;;;;;;5013344;28;20026;-66
2022/01/11 02:08:06;;;;;;;22.90;18.20;;;9.10;80.40;;;;;;5013602;28;20018;-66
2022/01/11 02:10:31;;;;;;;25.65;19.63;;;9.00;80.90;;;;;;5013385;28;20033;-65
2022/01/11 02:13:00;;;;;;;23.65;19.40;;;9.00;80.90;;;;;;5013121;28;20030;-65
2022/01/11 02:15:26;;;;;;;23.38;20.17;;;9.00;80.80;;;;;;5013226;28;20040;-66
2022/01/11 02:17:52;;;;;;;25.60;17.83;;;9.00;80.50;;;;;;5013491;28;20412;-63
2022/01/11 02:27:02;;;;;;;25.35;18.92;;;9.00;80.30;;;;;;5036196;22;20376;-66
2022/01/11 02:29:28;;;;;;;23.30;19.63;;;9.00;80.50;;;;;;5012789;28;20228;-67
2022/01/11 02:31:54;;;;;;;28.80;20.58;;;9.00;80.60;;;;;;5013211;28;20076;-68
2022/01/11 02:34:19;;;;;;;26.20;18.40;;;9.00;80.50;;;;;;5013386;28;20022;-69
2022/01/11 02:36:45;;;;;;;25.23;19.17;;;9.00;80.70;;;;;;5012953;28;20022;-68
2022/01/11 02:39:11;;;;;;;21.02;18.23;;;8.90;80.50;;;;;;5013239;28;20034;-69
2022/01/11 02:41:49;;;;;;;22.00;18.70;;;8.90;80.70;;;;;;5012982;28;20100;-67
2022/01/11 02:44:14;;;;;;;24.30;18.52;;;8.90;80.50;;;;;;5013095;28;20026;-68
2022/01/11 02:46:40;;;;;;;25.13;18.50;;;8.90;80.40;;;;;;5013070;28;20442;-68
2022/01/11 02:49:06;;;;;;;24.58;19.15;;;8.90;80.40;;;;;;5013039;28;20053;-68
2022/01/11 02:51:31;;;;;;;19.88;17.77;;;8.90;80.40;;;;;;5013076;28;20096;-67
2022/01/11 02:53:59;;;;;;;21.27;18.67;;;8.90;80.40;;;;;;5013345;28;20509;-67
2022/01/11 02:56:25;;;;;;;22.20;17.60;;;8.90;80.30;;;;;;5012640;28;20032;-67
2022/01/11 02:58:51;;;;;;;25.13;18.08;;;8.90;80.50;;;;;;5013069;28;20038;-67
2022/01/11 03:01:18;;;;;;;20.92;17.35;;;8.90;80.20;;;;;;5012918;28;20080;-67
2022/01/11 03:03:44;;;;;;;19.02;16.98;;;8.90;80.40;;;;;;5012935;28;20034;-66
2022/01/11 03:06:09;;;;;;;24.60;16.85;;;8.90;80.40;;;;;;5013075;28;20045;-67
2022/01/11 03:08:44;;;;;;;22.27;17.40;;;8.80;80.50;;;;;;5013024;28;20026;-67
2022/01/11 03:11:10;;;;;;;23.00;17.60;;;8.80;80.50;;;;;;5012609;28;20028;-66
2022/01/11 03:13:38;;;;;;;21.48;16.20;;;8.80;80.50;;;;;;5012945;28;20021;-66
2022/01/11 03:16:04;;;;;;;22.80;16.63;;;8.80;80.40;;;;;;5012841;28;20018;-67
2022/01/11 03:18:30;;;;;;;21.65;17.13;;;8.80;80.30;;;;;;5012668;28;20175;-67
2022/01/11 03:20:56;;;;;;;20.92;15.75;;;8.90;80.30;;;;;;5012806;28;20034;-66
2022/01/11 03:23:22;;;;;;;22.20;16.88;;;8.80;80.50;;;;;;5012729;28;20026;-66
2022/01/11 03:25:51;;;;;;;21.33;16.70;;;8.80;80.40;;;;;;5013416;28;20030;-67
2022/01/11 03:28:17;;;;;;;20.83;16.35;;;8.80;80.30;;;;;;5016234;28;20037;-67
2022/01/11 03:30:43;;;;;;;20.63;16.40;;;8.80;80.30;;;;;;5016082;28;20097;-67
2022/01/11 03:33:09;;;;;;;22.50;17.33;;;8.80;80.20;;;;;;5016193;28;20101;-67
2022/01/11 03:35:36;;;;;;;20.23;15.50;;;8.70;80.30;;;;;;5016171;28;20041;-66
2022/01/11 03:38:04;;;;;;;19.90;16.38;;;8.70;80.50;;;;;;5016253;28;20026;-67
2022/01/11 03:40:30;;;;;;;19.27;15.73;;;8.70;80.30;;;;;;5015685;28;20022;-66
2022/01/11 03:42:56;;;;;;;21.83;16.55;;;8.80;80.30;;;;;;5016224;28;20108;-66
2022/01/11 03:45:22;;;;;;;21.58;16.92;;;8.70;80.20;;;;;;5015948;28;20057;-67
2022/01/11 03:47:50;;;;;;;21.92;16.95;;;8.80;80.20;;;;;;5016305;28;20041;-67
2022/01/11 03:50:16;;;;;;;21.40;16.73;;;8.70;80.30;;;;;;5015920;28;20018;-67
2022/01/11 03:52:43;;;;;;;20.63;16.40;;;8.70;80.30;;;;;;5015567;28;20030;-67
2022/01/11 03:55:12;;;;;;;17.92;15.82;;;8.80;80.50;;;;;;5016104;28;20030;-68
2022/01/11 03:57:39;;;;;;;20.50;15.48;;;8.70;80.30;;;;;;5015587;28;20112;-66
2022/01/11 04:00:13;;;;;;;20.80;15.35;;;8.70;80.40;;;;;;5015588;28;20041;-66
2022/01/11 04:02:40;;;;;;;19.85;16.00;;;8.70;80.10;;;;;;5015873;28;20491;-66
2022/01/11 04:05:06;;;;;;;20.67;16.40;;;8.70;80.40;;;;;;5015687;28;20036;-66
2022/01/11 04:07:32;;;;;;;20.20;15.05;;;8.70;80.30;;;;;;5015101;28;20113;-66
2022/01/11 04:09:58;;;;;;;17.33;14.65;;;8.70;80.30;;;;;;5009384;28;20155;-67
2022/01/11 04:12:24;;;;;;;20.45;15.43;;;8.70;80.10;;;;;;5013108;23;20131;-68
2022/01/11 04:14:51;;;;;;;18.45;15.32;;;8.70;80.20;;;;;;5012645;28;20022;-68
2022/01/11 04:17:17;;;;;;;20.42;14.30;;;8.60;80.20;;;;;;5014189;28;20418;-68
2022/01/11 04:19:43;;;;;;;18.92;15.18;;;8.60;80.10;;;;;;5015156;28;20376;-67
2022/01/11 04:22:08;;;;;;;17.05;14.70;;;8.70;80.20;;;;;;5014911;28;20037;-66
2022/01/11 04:24:34;;;;;;;18.05;15.40;;;8.60;80.30;;;;;;5015356;28;20097;-67
2022/01/11 04:27:00;;;;;;;18.10;14.35;;;8.60;80.30;;;;;;5015333;28;20480;-68
2022/01/11 04:29:26;;;;;;;19.33;14.15;;;8.60;80.60;;;;;;5014835;28;20083;-67
2022/01/11 04:31:51;;;;;;;17.33;14.55;;;8.60;80.30;;;;;;5015072;28;20025;-68
2022/01/11 04:34:17;;;;;;;23.40;14.75;;;8.60;80.30;;;;;;5015045;28;20376;-67
2022/01/11 04:36:43;;;;;;;15.15;12.98;;;8.60;78.20;;;;;;5014768;28;20026;-67
2022/01/11 04:39:12;;;;;;;17.58;13.90;;;8.60;78.20;;;;;;5014780;28;20092;-68
2022/01/11 04:41:38;;;;;;;15.02;12.07;;;8.50;78.30;;;;;;5014652;28;20103;-67
2022/01/11 04:44:05;;;;;;;15.20;12.45;;;8.50;77.90;;;;;;5015120;28;20467;-66
2022/01/11 04:46:31;;;;;;;13.40;11.98;;;8.50;78.40;;;;;;5016886;28;20037;-68
2022/01/11 04:48:58;;;;;;;13.98;12.20;;;8.50;78.20;;;;;;5016285;28;20022;-68
2022/01/11 04:51:24;;;;;;;16.73;12.82;;;8.50;78.20;;;;;;5016441;28;20030;-68
2022/01/11 04:53:50;;;;;;;14.50;11.88;;;8.50;78.40;;;;;;5016112;28;20033;-68
2022/01/11 04:56:16;;;;;;;13.93;11.95;;;8.50;78.40;;;;;;5014878;28;20045;-68
2022/01/11 04:58:42;;;;;;;14.35;11.82;;;8.50;78.70;;;;;;5014451;28;20049;-68
2022/01/11 05:01:08;;;;;;;16.80;12.35;;;8.50;78.70;;;;;;5014676;28;20555;-68
2022/01/11 05:03:34;;;;;;;15.32;13.10;;;8.40;78.70;;;;;;5014517;28;20038;-68
2022/01/11 05:06:00;;;;;;;15.45;12.57;;;8.40;78.50;;;;;;5014201;28;20030;-68
2022/01/11 05:08:25;;;;;;;15.45;12.88;;;8.40;79.10;;;;;;5014812;28;20390;-68
2022/01/11 05:10:51;;;;;;;16.08;12.45;;;8.40;79.10;;;;;;5014067;28;20038;-68
2022/01/11 05:13:18;;;;;;;19.05;13.70;;;8.40;79.20;;;;;;5014352;28;20033;-68
2022/01/11 05:15:44;;;;;;;14.32;12.82;;;8.30;79.10;;;;;;5014328;28;20018;-68
2022/01/11 05:18:11;;;;;;;14.65;12.68;;;8.30;79.30;;;;;;5014545;28;20033;-68
2022/01/11 05:20:38;;;;;;;17.35;12.75;;;8.30;79.40;;;;;;5013532;28;20033;-68
2022/01/11 05:23:04;;;;;;;14.60;12.40;;;8.40;79.20;;;;;;5014307;28;20442;-67
2022/01/11 05:25:31;;;;;;;14.50;11.90;;;8.30;79.30;;;;;;5013980;28;20024;-66
2022/01/11 05:27:59;;;;;;;13.35;11.95;;;8.40;79.30;;;;;;5014042;28;20403;-67
2022/01/11 05:30:25;;;;;;;15.00;12.85;;;8.30;79.30;;;;;;5013960;28;20022;-67
2022/01/11 05:32:51;;;;;;;16.33;12.93;;;8.30;79.30;;;;;;5013898;28;20108;-67
2022/01/11 05:35:19;;;;;;;14.80;11.93;;;8.30;79.80;;;;;;5013734;28;20053;-67
2022/01/11 05:37:45;;;;;;;16.45;12.77;;;8.30;79.40;;;;;;5014036;28;20099;-67
2022/01/11 05:40:11;;;;;;;16.92;12.93;;;8.20;79.70;;;;;;5013759;28;20062;-67
2022/01/11 05:42:38;;;;;;;15.43;13.05;;;8.20;80.10;;;;;;5014035;28;20103;-68
2022/01/11 05:45:05;;;;;;;14.95;13.13;;;8.30;79.90;;;;;;5013827;28;20022;-67
2022/01/11 05:47:31;;;;;;;15.00;12.98;;;8.20;79.90;;;;;;5013491;28;20381;-67
2022/01/11 05:49:57;;;;;;;18.40;14.45;;;8.20;80.00;;;;;;5012745;28;20116;-67
2022/01/11 05:52:22;;;;;;;16.80;13.88;;;8.20;80.20;;;;;;4979969;28;20076;-68
2022/01/11 05:54:48;;;;;;;14.77;13.20;;;8.20;80.10;;;;;;5014005;28;20468;-68
2022/01/11 05:57:14;;;;;;;17.00;13.38;;;8.20;80.30;;;;;;5008198;28;20472;-68
2022/01/11 05:59:39;;;;;;;18.05;15.13;;;8.20;80.20;;;;;;5008023;28;20076;-68
2022/01/11 06:02:06;;;;;;;17.70;14.30;;;8.10;80.30;;;;;;5003446;28;20606;-68
2022/01/11 06:04:32;;;;;;;17.67;14.13;;;8.10;80.30;;;;;;5011861;28;20022;-68
2022/01/11 06:06:57;;;;;;;17.30;13.13;;;8.10;80.40;;;;;;5012501;28;20463;-68
2022/01/11 06:09:26;;;;;;;18.25;14.30;;;8.10;80.50;;;;;;5012143;28;20349;-68
2022/01/11 06:11:53;;;;;;;22.13;13.90;;;8.10;80.50;;;;;;5012737;28;20029;-68
2022/01/11 06:14:18;;;;;;;18.23;14.10;;;8.10;80.40;;;;;;5012976;28;20030;-68
2022/01/11 06:16:44;;;;;;;16.88;13.10;;;8.00;80.50;;;;;;5011962;28;20038;-68
2022/01/11 06:19:10;;;;;;;17.95;14.40;;;8.10;80.60;;;;;;4992871;28;20053;-68
2022/01/11 06:21:35;;;;;;;19.33;14.82;;;8.10;80.70;;;;;;4993275;28;20080;-68
2022/01/11 06:24:01;;;;;;;17.05;13.82;;;8.10;80.70;;;;;;5009226;28;20026;-68
2022/01/11 06:26:28;;;;;;;18.48;14.07;;;8.00;81.00;;;;;;5011488;28;20121;-68
2022/01/11 06:28:54;;;;;;;19.60;15.77;;;8.00;80.90;;;;;;5013048;28;20014;-68
2022/01/11 06:31:20;;;;;;;17.98;15.18;;;8.00;80.80;;;;;;5012174;28;20148;-68
2022/01/11 06:33:46;;;;;;;20.05;15.30;;;8.00;81.10;;;;;;5013014;28;20068;-68
2022/01/11 06:36:11;;;;;;;21.75;16.00;;;8.00;80.90;;;;;;5013142;28;20030;-68
2022/01/11 06:38:39;;;;;;;20.27;15.88;;;7.90;81.70;;;;;;5012022;28;20029;-67
2022/01/11 06:41:05;;;;;;;19.08;15.18;;;8.00;81.10;;;;;;5028507;28;20114;-67
2022/01/11 06:43:30;;;;;;;22.13;13.85;;;8.00;81.20;;;;;;5009764;28;20453;-67
2022/01/11 06:45:56;;;;;;;19.98;14.35;;;8.00;81.90;;;;;;5009040;28;20656;-66
2022/01/11 06:48:22;;;;;;;20.17;15.65;;;8.00;81.80;;;;;;5009186;28;20030;-66
2022/01/11 06:50:47;;;;;;;18.05;14.63;;;8.00;82.10;;;;;;5005926;28;20038;-64
2022/01/11 06:53:13;;;;;;;23.17;15.98;;;8.10;81.70;;;;;;5007770;28;20044;-67
2022/01/11 06:55:39;;;;;;;21.13;15.90;;;8.10;81.80;;;;;;5010011;28;20530;-66
2022/01/11 06:58:05;;;;;;;21.10;15.45;;;8.00;81.90;;;;;;5008191;28;20022;-64
2022/01/11 07:00:32;;;;;;;22.10;15.50;;;8.00;82.20;;;;;;5008293;28;20539;-63
2022/01/11 07:02:58;;;;;;;19.05;15.63;;;8.10;82.10;;;;;;5013515;28;20026;-63
2022/01/11 07:05:23;;;;;;;21.77;15.57;;;8.10;82.00;;;;;;5011867;28;20036;-64
2022/01/11 07:07:49;;;;;;;21.05;15.68;;;8.10;82.00;;;;;;5009449;28;20129;-66
2022/01/11 07:10:15;;;;;;;23.92;16.10;;;8.20;81.90;;;;;;5012546;28;20044;-63
2022/01/11 07:12:41;;;;;;;23.05;15.90;;;8.20;81.90;;;;;;5014175;28;20033;-65
2022/01/11 07:15:07;;;;;;;21.02;16.25;;;8.20;82.10;;;;;;5013589;28;20033;-63
2022/01/11 07:17:33;;;;;;;22.13;15.93;;;8.20;82.30;;;;;;5010107;28;20049;-65
2022/01/11 07:19:58;;;;;;;20.42;16.05;;;8.10;81.90;;;;;;5011498;28;20064;-64
2022/01/11 07:22:24;;;;;;;19.67;15.40;;;8.20;82.20;;;;;;5012278;28;20060;-66
2022/01/11 07:24:50;;;;;;;20.70;15.82;;;8.20;82.30;;;;;;5012387;28;20539;-65
2022/01/11 07:27:16;;;;;;;20.20;15.32;;;8.20;81.50;;;;;;5013689;28;20040;-65
2022/01/11 07:29:42;;;;;;;22.20;15.32;;;8.20;81.60;;;;;;5006696;28;20040;-64
2022/01/11 07:32:07;;;;;;;21.42;15.73;;;8.20;81.70;;;;;;5013301;28;20128;-63
2022/01/11 07:34:33;;;;;;;21.98;15.70;;;8.20;81.60;;;;;;5015903;28;20053;-64
2022/01/11 07:36:59;;;;;;;19.60;14.90;;;8.20;81.80;;;;;;5015364;28;20513;-65
2022/01/11 07:39:24;;;;;;;22.42;16.33;;;8.20;81.80;;;;;;5014117;28;20022;-62
2022/01/11 07:41:50;;;;;;;24.83;15.68;;;8.20;81.90;;;;;;5008287;28;20045;-65
2022/01/11 07:44:17;;;;;;;20.77;16.83;;;8.20;82.00;;;;;;5010697;28;20030;-67
2022/01/11 07:46:44;;;;;;;24.60;16.58;;;8.20;82.10;;;;;;5024479;28;20510;-64
2022/01/11 07:49:11;;;;;;;22.40;16.88;;;8.10;82.20;;;;;;5013657;28;20089;-63
2022/01/11 07:51:37;;;;;;;19.23;14.20;;;8.20;83.10;;;;;;5013695;28;20450;-66
2022/01/11 07:54:03;;;;;;;24.52;18.08;;;8.40;86.00;;;;;;5014831;28;20097;-65
2022/01/11 07:56:29;;;;;;;24.85;17.63;;;8.40;82.00;;;;;;5013493;28;20045;-64
2022/01/11 07:58:54;;;;;;;24.98;19.88;;;8.40;82.10;;;;;;5019145;28;20026;-66
2022/01/11 08:01:20;;;;;;;24.20;18.35;;;8.40;81.70;;;;;;5013776;28;20387;-62
2022/01/11 08:03:46;;;;;;;27.13;17.15;;;8.40;82.30;;;;;;5014733;28;20022;-66
2022/01/11 08:06:13;;;;;;;25.60;17.40;;;8.40;82.10;;;;;;5015272;28;20395;-67
2022/01/11 08:08:38;;;;;;;24.75;18.00;;;8.40;81.60;;;;;;5014171;28;20096;-66
2022/01/11 08:11:04;;;;;;;22.33;16.63;;;8.40;81.30;;;;;;5012778;28;20117;-63
2022/01/11 08:13:30;;;;;;;22.10;17.10;;;8.40;81.40;;;;;;5017722;28;20025;-67
2022/01/11 08:15:55;;;;;;;28.13;19.60;;;8.50;80.80;;;;;;5033546;28;20517;-65
2022/01/11 08:18:21;;;;;;;30.05;18.88;;;8.50;80.50;;;;;;5028473;28;20020;-67
2022/01/11 08:20:47;;;;;;;24.52;17.35;;;8.40;80.70;;;;;;5014530;28;20464;-65
2022/01/11 08:23:14;;;;;;;27.00;18.10;;;8.40;81.00;;;;;;5014977;28;20101;-67
2022/01/11 08:25:40;;;;;;;26.20;18.05;;;8.40;80.90;;;;;;5015195;28;20490;-67
2022/01/11 08:28:06;;;;;;;27.55;18.15;;;8.50;81.60;;;;;;5013110;22;20084;-67
2022/01/11 08:30:32;;;;;;;26.30;18.98;;;8.40;81.30;;;;;;5014441;28;20045;-65
2022/01/11 08:32:57;;;;;;;27.98;19.38;;;8.50;81.70;;;;;;5014748;28;20033;-67
2022/01/11 08:35:24;;;;;;;32.22;21.50;;;8.50;81.20;;;;;;5015085;28;20097;-66
2022/01/11 08:37:50;;;;;;;29.17;20.42;;;8.40;81.30;;;;;;5014603;28;20100;-66
2022/01/11 08:40:17;;;;;;;26.42;18.60;;;8.40;81.70;;;;;;5015414;28;20018;-66
2022/01/11 08:42:42;;;;;;;27.60;18.92;;;8.50;81.90;;;;;;5014013;28;20033;-66
2022/01/11 08:45:09;;;;;;;24.85;16.70;;;8.50;82.30;;;;;;5013391;28;20021;-66
2022/01/11 08:47:35;;;;;;;22.50;15.95;;;8.70;83.20;;;;;;5014697;28;20045;-67
2022/01/11 08:50:03;;;;;;;24.17;18.42;;;8.70;83.10;;;;;;5014525;28;20371;-67
2022/01/11 08:52:29;;;;;;;23.95;16.95;;;8.70;82.20;;;;;;5014717;28;20025;-67
2022/01/11 08:54:56;;;;;;;23.45;16.67;;;8.80;82.60;;;;;;5013879;28;20398;-67
2022/01/11 08:57:21;;;;;;;20.25;14.30;;;8.80;82.10;;;;;;5014016;28;20100;-67
2022/01/11 08:59:48;;;;;;;21.02;15.63;;;8.80;82.30;;;;;;5013783;28;20475;-66
2022/01/11 09:02:14;;;;;;;22.90;17.30;;;8.90;82.80;;;;;;5013819;28;20029;-66
2022/01/11 09:04:40;;;;;;;22.98;17.08;;;9.00;82.10;;;;;;5013266;28;20033;-66
2022/01/11 09:07:06;;;;;;;25.77;17.88;;;8.90;81.20;;;;;;5014242;28;20037;-66
2022/01/11 09:09:32;;;;;;;22.55;15.77;;;8.90;81.70;;;;;;5012545;28;20053;-66
2022/01/11 09:12:02;;;;;;;24.15;16.90;;;8.90;82.10;;;;;;5011526;28;20030;-65
2022/01/11 09:14:28;;;;;;;23.02;17.27;;;8.90;81.80;;;;;;5013640;28;20014;-66
2022/01/11 09:16:54;;;;;;;26.08;17.77;;;9.00;82.40;;;;;;5013701;28;20040;-67
2022/01/11 09:19:20;;;;;;;24.08;16.60;;;8.90;81.30;;;;;;5013960;28;20029;-66
2022/01/11 09:21:45;;;;;;;26.77;19.45;;;8.90;81.30;;;;;;5014078;28;20034;-68
2022/01/11 09:24:12;;;;;;;27.33;18.20;;;9.00;81.70;;;;;;5012970;28;20068;-65
2022/01/11 09:26:39;;;;;;;26.88;17.48;;;9.10;82.20;;;;;;5010914;28;20049;-66
2022/01/11 09:29:05;;;;;;;25.85;18.10;;;9.00;80.70;;;;;;5013020;28;20603;-66
2022/01/11 09:31:31;;;;;;;26.63;18.13;;;9.00;80.70;;;;;;5013724;28;20021;-67
2022/01/11 09:33:57;;;;;;;21.98;16.10;;;9.00;80.40;;;;;;5013781;28;20379;-66
2022/01/11 09:36:23;;;;;;;28.30;18.85;;;9.10;81.50;;;;;;5013047;28;20060;-67
2022/01/11 09:38:49;;;;;;;22.73;16.50;;;9.10;79.90;;;;;;5013437;28;20034;-67
2022/01/11 09:41:15;;;;;;;26.45;18.90;;;9.10;81.10;;;;;;5013149;28;20029;-66
2022/01/11 09:43:41;;;;;;;29.83;19.55;;;9.10;80.00;;;;;;5013116;28;20468;-66
2022/01/11 09:46:07;;;;;;;26.80;19.38;;;9.00;80.20;;;;;;5013058;28;20471;-66
2022/01/11 09:48:33;;;;;;;32.08;21.25;;;9.00;80.40;;;;;;5013883;28;20052;-66
2022/01/11 09:51:00;;;;;;;30.52;21.15;;;9.00;80.20;;;;;;5013769;28;20028;-66
2022/01/11 09:53:26;;;;;;;30.55;20.13;;;8.90;80.30;;;;;;5013522;28;20029;-67
2022/01/11 09:55:53;;;;;;;29.70;19.45;;;8.90;80.70;;;;;;5011545;28;20022;-64
2022/01/11 09:58:19;;;;;;;29.23;18.63;;;8.90;80.90;;;;;;5011445;28;20326;-64
2022/01/11 10:00:45;;;;;;;28.35;19.02;;;8.90;80.80;;;;;;5013261;28;20062;-65
2022/01/11 10:03:11;;;;;;;28.55;19.08;;;8.90;80.50;;;;;;5012914;28;20022;-66
2022/01/11 10:05:37;;;;;;;27.02;18.80;;;8.90;80.80;;;;;;5012283;28;20030;-66
2022/01/11 10:08:23;;;;;;;26.90;18.73;;;8.90;80.80;;;;;;5013190;28;20172;-66
2022/01/11 10:10:52;;;;;;;24.05;18.08;;;8.90;80.80;;;;;;5012873;28;20080;-66
2022/01/11 10:13:34;;;;;;;26.33;17.83;;;8.90;81.00;;;;;;5013330;28;20054;-66
2022/01/11 10:16:23;;;;;;;28.80;18.90;;;8.90;81.00;;;;;;5012550;28;20034;-66
2022/01/11 10:18:50;;;;;;;26.50;17.60;;;8.90;80.80;;;;;;5013220;28;20406;-67
2022/01/11 10:21:34;;;;;;;27.85;17.27;;;9.00;81.30;;;;;;5013071;28;20475;-67
2022/01/11 10:24:22;;;;;;;26.98;17.30;;;9.10;81.60;;;;;;5013331;28;20018;-67
2022/01/11 10:26:48;;;;;;;27.15;17.80;;;9.10;80.80;;;;;;5012272;28;20068;-66
2022/01/11 10:29:37;;;;;;;25.25;18.23;;;9.10;80.60;;;;;;5012948;28;20467;-67
2022/01/11 10:32:13;;;;;;;26.17;17.13;;;9.10;80.70;;;;;;5013392;28;20029;-67
2022/01/11 10:34:40;;;;;;;26.95;17.73;;;9.10;80.90;;;;;;5013503;28;20467;-67
2022/01/11 10:37:06;;;;;;;28.45;18.02;;;9.10;80.40;;;;;;5015813;28;20061;-68
2022/01/11 10:39:39;;;;;;;25.42;17.35;;;9.20;81.10;;;;;;5016658;28;20089;-66
2022/01/11 10:42:07;;;;;;;22.15;16.30;;;9.10;80.50;;;;;;5016921;28;20057;-66
2022/01/11 10:45:05;;;;;;;27.17;17.13;;;9.20;80.40;;;;;;5016756;28;20121;-65
2022/01/11 10:47:37;;;;;;;29.17;18.05;;;9.20;80.00;;;;;;5014018;28;20041;-65
2022/01/11 10:50:18;;;;;;;27.88;18.85;;;9.20;80.00;;;;;;5010088;28;20021;-65
2022/01/11 10:52:45;;;;;;;28.15;17.60;;;9.10;79.90;;;;;;5013347;28;20030;-65
2022/01/11 10:55:17;;;;;;;24.25;17.25;;;9.20;80.20;;;;;;5016572;28;20025;-66
2022/01/11 10:57:47;;;;;;;26.35;18.27;;;9.20;79.70;;;;;;5016544;28;20042;-67
2022/01/11 11:00:18;;;;;;;27.33;17.88;;;9.20;80.00;;;;;;5016651;28;20041;-66
2022/01/11 11:02:49;;;;;;;28.10;18.17;;;9.20;80.20;;;;;;5012319;28;20033;-66
2022/01/11 11:05:18;;;;;;;33.13;18.13;;;9.30;79.60;;;;;;5016380;28;20049;-65
2022/01/11 11:08:01;;;;;;;25.33;17.60;;;9.30;79.70;;;;;;5002632;28;20045;-65
2022/01/11 11:10:49;;;;;;;27.65;18.33;;;9.30;79.60;;;;;;5015909;28;20014;-65
2022/01/11 11:13:24;;;;;;;24.33;16.67;;;9.30;79.70;;;;;;5016448;28;20029;-66
2022/01/11 11:15:51;;;;;;;23.80;16.52;;;9.30;80.30;;;;;;5015691;28;20025;-66
2022/01/11 11:18:22;;;;;;;25.60;16.65;;;9.40;79.90;;;;;;5015839;28;20375;-67
2022/01/11 11:20:47;;;;;;;25.27;17.83;;;9.40;79.60;;;;;;5015908;28;20037;-66
2022/01/11 11:23:15;;;;;;;24.75;16.98;;;9.40;79.20;;;;;;5016081;28;20026;-66
2022/01/11 11:25:40;;;;;;;26.13;17.75;;;9.40;79.50;;;;;;5016398;28;20386;-67
2022/01/11 11:28:06;;;;;;;28.42;17.35;;;9.30;79.00;;;;;;5016028;28;20045;-65
2022/01/11 11:30:33;;;;;;;25.00;17.90;;;9.30;79.50;;;;;;5015874;28;20478;-68
2022/01/11 11:33:00;;;;;;;27.70;18.10;;;9.30;79.10;;;;;;5015767;28;20036;-67
2022/01/11 11:35:26;;;;;;;23.58;16.88;;;9.30;79.30;;;;;;5016149;28;20390;-66
2022/01/11 11:37:59;;;;;;;25.08;18.13;;;9.30;79.60;;;;;;5015580;28;20022;-64
2022/01/11 11:40:27;;;;;;;24.52;16.55;;;9.40;79.70;;;;;;5015510;28;20084;-68
2022/01/11 11:43:01;;;;;;;22.30;16.23;;;9.40;79.80;;;;;;5016086;28;20018;-67
2022/01/11 11:45:36;;;;;;;24.00;16.92;;;9.40;80.20;;;;;;5016040;28;20105;-67
2022/01/11 11:48:24;;;;;;;28.67;19.63;;;9.40;79.70;;;;;;5014998;28;20140;-67
2022/01/11 11:51:03;;;;;;;23.50;16.70;;;9.40;79.60;;;;;;5013862;28;20037;-64
2022/01/11 11:53:37;;;;;;;22.63;16.05;;;9.40;79.80;;;;;;5014883;28;20049;-67
2022/01/11 11:56:22;;;;;;;25.23;17.42;;;9.50;80.00;;;;;;5015061;28;20097;-67
2022/01/11 11:58:56;;;;;;;30.08;17.98;;;9.50;80.00;;;;;;5015456;28;20026;-68
2022/01/11 12:01:41;;;;;;;24.90;16.15;;;9.50;79.70;;;;;;5015359;28;20032;-67
2022/01/11 12:04:27;;;;;;;22.15;15.27;;;9.50;79.60;;;;;;5015756;28;20026;-68
2022/01/11 12:06:55;;;;;;;26.90;16.77;;;9.50;79.80;;;;;;5014632;28;20037;-68
2022/01/11 12:09:21;;;;;;;27.35;15.93;;;9.50;79.60;;;;;;5014242;28;20118;-67
2022/01/11 12:11:50;;;;;;;24.83;16.90;;;9.50;79.90;;;;;;5014119;28;20071;-69
2022/01/11 12:14:34;;;;;;;34.65;22.00;;;9.60;79.70;;;;;;5014860;28;20404;-67
2022/01/11 12:17:13;;;;;;;27.20;19.50;;;9.70;79.40;;;;;;5015190;28;20475;-66
2022/01/11 12:19:47;;;;;;;25.83;16.70;;;9.70;80.10;;;;;;5015576;28;20084;-67
2022/01/11 12:22:14;;;;;;;21.17;13.23;;;9.80;82.30;;;;;;5016538;28;20061;-67
2022/01/11 12:24:44;;;;;;;19.10;12.77;;;10.00;87.20;;;;;;5017507;28;20061;-68
2022/01/11 12:27:10;;;;;;;21.15;14.88;;;10.20;91.10;;;;;;5017052;28;20049;-66
2022/01/11 12:29:38;;;;;;;21.30;14.32;;;10.30;90.10;;;;;;5015239;28;20026;-65
2022/01/11 12:32:07;;;;;;;22.15;14.20;;;10.40;90.10;;;;;;5015257;28;20160;-63
2022/01/11 12:34:45;;;;;;;20.40;13.60;;;10.40;89.90;;;;;;5014493;28;20035;-68
2022/01/11 12:37:49;;;;;;;22.92;14.30;;;10.50;89.10;;;;;;5014253;28;20395;-66
2022/01/11 12:40:23;;;;;;;23.30;15.32;;;10.60;87.60;;;;;;5001645;28;20120;-66
2022/01/11 12:42:53;;;;;;;20.73;14.88;;;10.60;83.70;;;;;;5014359;28;20038;-64
2022/01/11 12:45:55;;;;;;;21.42;15.65;;;10.70;83.50;;;;;;5014669;28;20053;-66